createdAt,value
2022-09-23T00:00:09.002Z,98.12
2022-09-23T00:03:16.996Z,98.25
2022-09-23T00:06:11.757Z,98.28
2022-09-23T00:08:59.531Z,98.32
2022-09-23T00:11:47.486Z,98.61
2022-09-23T00:14:37.362Z,99.04
2022-09-23T00:17:25.614Z,98.60
2022-09-23T00:20:14.627Z,98.60
2022-09-23T00:23:02.902Z,98.54
2022-09-23T00:25:59.374Z,98.48
2022-09-23T00:28:49.137Z,98.65
2022-09-23T00:31:39.023Z,98.92
2022-09-23T00:34:26.947Z,98.93
2022-09-23T00:37:16.832Z,98.80
2022-09-23T00:40:05.412Z,98.64
2022-09-23T00:42:53.004Z,98.79
2022-09-23T00:45:45.654Z,98.99
2022-09-23T00:48:35.716Z,98.92
2022-09-23T00:51:28.275Z,98.83
2022-09-23T00:54:18.172Z,98.77
2022-09-23T00:57:07.112Z,98.94
2022-09-23T00:59:55.278Z,99.07
2022-09-23T01:02:43.226Z,99.26
2022-09-23T01:05:33.702Z,99.43
2022-09-23T01:08:23.773Z,99.21
2022-09-23T01:11:48.706Z,99.25
2022-09-23T01:14:56.212Z,99.04
2022-09-23T01:18:03.067Z,98.96
2022-09-23T01:21:18.833Z,98.83
2022-09-23T01:24:48.538Z,99.08
2022-09-23T01:27:56.577Z,99.16
2022-09-23T01:31:10.402Z,99.28
2022-09-23T01:34:26.731Z,99.55
2022-09-23T01:37:41.207Z,99.70
2022-09-23T01:41:13.777Z,99.82
2022-09-23T01:44:12.671Z,99.84
2022-09-23T01:47:27.455Z,99.61
2022-09-23T01:50:39.782Z,99.66
2022-09-23T01:53:33.561Z,99.61
2022-09-23T01:56:33.669Z,99.71
2022-09-23T01:59:38.437Z,99.71
2022-09-23T02:02:36.516Z,99.77
2022-09-23T02:05:37.709Z,100.00
2022-09-23T02:08:53.393Z,99.97
2022-09-23T02:11:46.323Z,100.00
2022-09-23T02:15:11.955Z,100.00
2022-09-23T02:18:13.191Z,99.98
2022-09-23T02:21:07.496Z,100.00
2022-09-23T02:24:09.285Z,100.00
2022-09-23T02:27:40.566Z,100.00
2022-09-23T02:30:40.044Z,100.00
2022-09-23T02:33:39.361Z,100.00
2022-09-23T02:36:54.414Z,100.00
2022-09-23T02:40:20.737Z,100.00
2022-09-23T02:43:19.946Z,100.00
2022-09-23T02:46:08.247Z,100.00
2022-09-23T02:49:04.294Z,100.00
2022-09-23T02:51:54.733Z,100.00
2022-09-23T02:54:42.940Z,100.00
2022-09-23T02:57:31.583Z,100.00
2022-09-23T03:00:20.213Z,100.00
2022-09-23T03:03:49.029Z,100.00
2022-09-23T03:06:57.882Z,100.00
2022-09-23T03:10:10.678Z,100.00
2022-09-23T03:13:30.130Z,100.00
2022-09-23T03:17:04.370Z,100.00
2022-09-23T03:20:38.760Z,100.00
2022-09-23T03:23:37.456Z,100.00
2022-09-23T03:26:33.594Z,100.00
2022-09-23T03:29:23.625Z,100.00
2022-09-23T03:32:14.860Z,100.00
2022-09-23T03:35:06.161Z,100.00
2022-09-23T03:38:12.421Z,100.00
2022-09-23T03:41:04.306Z,100.00
2022-09-23T03:43:53.535Z,100.00
2022-09-23T03:46:44.284Z,100.00
2022-09-23T03:49:40.016Z,100.00
2022-09-23T03:52:28.706Z,100.00
2022-09-23T03:55:19.461Z,100.00
2022-09-23T03:58:08.537Z,100.00
2022-09-23T04:00:58.984Z,100.00
2022-09-23T04:03:46.962Z,100.00
2022-09-23T04:06:35.856Z,100.00
2022-09-23T04:09:24.312Z,100.00
2022-09-23T04:12:23.991Z,100.00
2022-09-23T04:15:12.253Z,100.00
2022-09-23T04:18:00.171Z,100.00
2022-09-23T04:20:49.359Z,100.00
2022-09-23T04:23:37.896Z,100.00
2022-09-23T04:26:25.935Z,100.00
2022-09-23T04:29:14.287Z,100.00
2022-09-23T04:32:02.814Z,100.00
2022-09-23T04:34:50.629Z,100.00
2022-09-23T04:37:38.522Z,100.00
2022-09-23T04:40:29.578Z,100.00
2022-09-23T04:43:23.581Z,100.00
2022-09-23T04:46:15.338Z,100.00
2022-09-23T04:49:03.504Z,100.00
2022-09-23T04:51:51.731Z,100.00
2022-09-23T04:54:41.925Z,100.00
2022-09-23T04:57:30.154Z,100.00
2022-09-23T05:00:18.402Z,100.00
2022-09-23T05:03:07.484Z,100.00
2022-09-23T05:06:00.039Z,100.00
2022-09-23T05:08:51.580Z,100.00
2022-09-23T05:11:39.726Z,100.00
2022-09-23T05:14:27.614Z,100.00
2022-09-23T05:17:15.830Z,100.00
2022-09-23T05:20:05.187Z,100.00
2022-09-23T05:22:55.745Z,100.00
2022-09-23T05:25:45.876Z,100.00
2022-09-23T05:28:36.145Z,100.00
2022-09-23T05:31:27.507Z,100.00
2022-09-23T05:34:16.079Z,100.00
2022-09-23T05:37:04.639Z,100.00
2022-09-23T05:39:52.832Z,99.99
2022-09-23T05:42:41.400Z,100.00
2022-09-23T05:45:32.368Z,99.80
2022-09-23T05:48:20.785Z,99.92
2022-09-23T05:51:27.592Z,100.00
2022-09-23T05:54:19.546Z,99.89
2022-09-23T05:57:07.457Z,99.79
2022-09-23T05:59:55.398Z,99.47
2022-09-23T06:02:43.392Z,99.50
2022-09-23T06:05:31.670Z,98.95
2022-09-23T06:08:19.792Z,98.51
2022-09-23T06:11:27.234Z,97.65
2022-09-23T06:14:15.159Z,97.36
2022-09-23T06:17:03.222Z,96.87
2022-09-23T06:19:54.029Z,96.53
2022-09-23T06:22:41.940Z,95.66
2022-09-23T06:25:30.521Z,95.38
2022-09-23T06:28:18.395Z,94.56
2022-09-23T06:31:17.184Z,93.53
2022-09-23T06:34:11.837Z,92.55
2022-09-23T06:37:08.532Z,92.17
2022-09-23T06:40:00.118Z,91.45
2022-09-23T06:42:52.400Z,90.63
2022-09-23T06:45:40.293Z,89.60
2022-09-23T06:48:29.109Z,88.05
2022-09-23T06:51:21.713Z,78.14
2022-09-23T06:54:09.749Z,68.18
2022-09-23T06:56:58.230Z,63.79
2022-09-23T06:59:46.435Z,56.04
2022-09-23T07:02:34.612Z,52.16
2022-09-23T07:05:23.010Z,47.30
2022-09-23T07:08:13.095Z,44.23
2022-09-23T07:11:06.122Z,43.27
2022-09-23T07:13:54.167Z,39.26
2022-09-23T07:16:42.052Z,37.05
2022-09-23T07:19:30.394Z,36.15
2022-09-23T07:22:19.224Z,35.15
2022-09-23T07:25:07.686Z,33.45
2022-09-23T07:27:56.788Z,32.23
2022-09-23T07:30:57.080Z,31.59
2022-09-23T07:33:47.825Z,30.98
2022-09-23T07:36:37.747Z,30.57
2022-09-23T07:39:26.368Z,29.87
2022-09-23T07:42:14.457Z,29.32
2022-09-23T07:45:02.940Z,28.94
2022-09-23T07:47:50.817Z,28.55
2022-09-23T07:50:40.547Z,28.33
2022-09-23T07:53:30.851Z,27.99
2022-09-23T07:56:20.731Z,27.77
2022-09-23T07:59:15.634Z,27.06
2022-09-23T08:02:03.595Z,26.39
2022-09-23T08:04:51.722Z,26.08
2022-09-23T08:07:39.883Z,26.39
2022-09-23T08:10:28.044Z,26.05
2022-09-23T08:13:16.197Z,26.07
2022-09-23T08:16:04.869Z,25.78
2022-09-23T08:18:53.368Z,25.27
2022-09-23T08:21:41.990Z,24.55
2022-09-23T08:24:32.460Z,24.13
2022-09-23T08:27:20.262Z,24.72
2022-09-23T08:30:09.712Z,25.06
2022-09-23T08:32:57.964Z,25.70
2022-09-23T08:35:45.830Z,26.62
2022-09-23T08:38:34.099Z,25.44
2022-09-23T08:41:37.152Z,25.80
2022-09-23T08:44:54.538Z,25.76
2022-09-23T08:48:10.748Z,27.43
2022-09-23T08:51:11.384Z,29.74
2022-09-23T08:54:00.263Z,31.40
2022-09-23T08:56:52.629Z,32.55
2022-09-23T08:59:44.293Z,34.21
2022-09-23T09:02:35.540Z,35.76
2022-09-23T09:05:28.655Z,37.59
2022-09-23T09:08:25.506Z,39.14
2022-09-23T09:11:16.704Z,40.42
2022-09-23T09:14:40.303Z,41.71
2022-09-23T09:18:22.966Z,42.86
2022-09-23T09:21:16.178Z,43.94
2022-09-23T09:24:37.260Z,45.26
2022-09-23T09:27:25.348Z,45.92
2022-09-23T09:30:14.803Z,46.36
2022-09-23T09:33:18.049Z,47.08
2022-09-23T09:36:43.563Z,47.47
2022-09-23T09:39:32.092Z,47.25
2022-09-23T09:42:27.187Z,47.65
2022-09-23T09:46:02.377Z,47.94
2022-09-23T09:48:59.894Z,47.92
2022-09-23T09:51:47.811Z,47.79
2022-09-23T09:54:35.503Z,46.54
2022-09-23T09:57:37.907Z,45.69
2022-09-23T10:00:26.585Z,44.89
2022-09-23T10:03:14.584Z,44.80
2022-09-23T10:06:22.844Z,44.56
2022-09-23T10:09:15.660Z,43.30
2022-09-23T10:12:27.041Z,41.74
2022-09-23T10:15:44.978Z,39.78
2022-09-23T10:18:39.381Z,36.91
2022-09-23T10:21:37.029Z,35.92
2022-09-23T10:24:31.199Z,35.10
2022-09-23T10:27:31.528Z,34.78
2022-09-23T10:30:28.563Z,33.78
2022-09-23T10:33:28.058Z,35.41
2022-09-23T10:36:18.556Z,35.82
2022-09-23T10:39:28.115Z,36.50
2022-09-23T10:43:21.270Z,36.15
2022-09-23T10:46:46.003Z,37.39
2022-09-23T10:49:44.049Z,37.06
2022-09-23T10:53:02.699Z,36.55
2022-09-23T10:56:22.689Z,35.72
2022-09-23T10:59:41.127Z,36.18
2022-09-23T11:03:24.665Z,36.45
2022-09-23T11:06:18.676Z,37.26
2022-09-23T11:10:18.367Z,36.61
2022-09-23T11:13:45.008Z,37.73
2022-09-23T11:16:49.358Z,36.98
2022-09-23T11:20:22.385Z,36.90
2022-09-23T11:23:40.937Z,37.30
2022-09-23T11:27:06.445Z,37.62
2022-09-23T11:30:22.503Z,38.12
2022-09-23T11:33:14.340Z,38.46
2022-09-23T11:36:40.791Z,38.40
2022-09-23T11:39:38.307Z,38.64
2022-09-23T11:42:33.447Z,38.50
2022-09-23T11:45:34.224Z,38.89
2022-09-23T11:48:57.360Z,39.94
2022-09-23T11:51:57.321Z,40.86
2022-09-23T11:55:21.182Z,41.41
2022-09-23T11:58:25.552Z,40.92
2022-09-23T12:01:45.917Z,39.42
2022-09-23T12:04:55.198Z,38.84
2022-09-23T12:08:31.012Z,38.20
2022-09-23T12:11:46.871Z,38.26
2022-09-23T12:14:59.590Z,36.55
2022-09-23T12:18:27.944Z,37.59
2022-09-23T12:21:49.183Z,37.22
2022-09-23T12:24:59.888Z,37.36
2022-09-23T12:27:51.726Z,37.12
2022-09-23T12:30:42.000Z,37.62
2022-09-23T12:33:33.853Z,37.81
2022-09-23T12:36:36.867Z,38.40
2022-09-23T12:39:37.384Z,38.91
2022-09-23T12:42:30.776Z,39.01
2022-09-23T12:45:35.137Z,39.87
2022-09-23T12:48:44.472Z,39.47
2022-09-23T12:51:34.960Z,40.17
2022-09-23T12:54:24.902Z,41.14
2022-09-23T12:57:35.219Z,40.31
2022-09-23T13:00:29.843Z,40.90
2022-09-23T13:03:41.204Z,41.56
2022-09-23T13:06:42.131Z,42.31
2022-09-23T13:09:37.817Z,42.67
2022-09-23T13:12:36.384Z,42.72
2022-09-23T13:15:36.740Z,42.98
2022-09-23T13:18:54.797Z,44.39
2022-09-23T13:21:42.896Z,44.96
2022-09-23T13:24:54.910Z,45.52
2022-09-23T13:27:47.819Z,45.99
2022-09-23T13:30:36.345Z,46.31
2022-09-23T13:34:04.660Z,46.67
2022-09-23T13:36:53.767Z,47.17
2022-09-23T13:39:44.195Z,48.54
2022-09-23T13:42:40.916Z,49.36
2022-09-23T13:45:34.373Z,49.40
2022-09-23T13:48:25.702Z,49.38
2022-09-23T13:51:39.861Z,50.64
2022-09-23T13:54:52.730Z,50.78
2022-09-23T13:57:43.486Z,51.66
2022-09-23T14:00:37.174Z,52.13
2022-09-23T14:03:37.254Z,52.66
2022-09-23T14:06:27.587Z,52.90
2022-09-23T14:09:23.974Z,53.15
2022-09-23T14:12:12.597Z,53.43
2022-09-23T14:15:00.299Z,53.95
2022-09-23T14:18:06.502Z,53.59
2022-09-23T14:20:54.360Z,53.98
2022-09-23T14:23:45.564Z,54.42
2022-09-23T14:26:39.755Z,54.67
2022-09-23T14:29:32.858Z,54.89
2022-09-23T14:32:25.940Z,55.45
2022-09-23T14:35:27.631Z,56.11
2022-09-23T14:38:49.406Z,56.18
2022-09-23T14:41:44.635Z,56.14
2022-09-23T14:44:35.728Z,56.44
2022-09-23T14:47:25.279Z,56.65
2022-09-23T14:50:39.785Z,57.14
2022-09-23T14:53:48.313Z,57.57
2022-09-23T14:56:43.907Z,58.43
2022-09-23T14:59:37.227Z,58.52
2022-09-23T15:02:39.456Z,58.97
2022-09-23T15:05:51.088Z,58.97
2022-09-23T15:08:42.502Z,59.40
2022-09-23T15:11:31.005Z,59.00
2022-09-23T15:14:37.226Z,58.80
2022-09-23T15:17:36.666Z,59.69
2022-09-23T15:20:27.737Z,60.29
2022-09-23T15:23:55.133Z,61.30
2022-09-23T15:26:52.619Z,61.79
2022-09-23T15:29:40.455Z,62.40
2022-09-23T15:32:28.230Z,62.71
2022-09-23T15:35:23.867Z,63.10
2022-09-23T15:38:12.623Z,63.73
2022-09-23T15:41:00.595Z,64.29
2022-09-23T15:43:49.100Z,65.42
2022-09-23T15:46:38.572Z,66.71
2022-09-23T15:49:36.536Z,67.04
2022-09-23T15:52:24.924Z,67.45
2022-09-23T15:55:22.098Z,67.52
2022-09-23T15:58:10.143Z,67.95
2022-09-23T16:00:58.217Z,68.38
2022-09-23T16:03:46.062Z,69.23
2022-09-23T16:06:36.273Z,69.77
2022-09-23T16:09:24.438Z,70.41
2022-09-23T16:12:12.824Z,70.86
2022-09-23T16:15:00.648Z,71.52
2022-09-23T16:17:49.125Z,72.30
2022-09-23T16:20:42.074Z,72.83
2022-09-23T16:23:37.829Z,73.50
2022-09-23T16:26:35.302Z,74.74
2022-09-23T16:29:23.408Z,75.50
2022-09-23T16:32:11.097Z,76.24
2022-09-23T16:34:59.362Z,77.15
2022-09-23T16:37:48.393Z,77.69
2022-09-23T16:40:36.569Z,78.05
2022-09-23T16:43:24.506Z,78.78
2022-09-23T16:46:16.623Z,78.64
2022-09-23T16:49:05.174Z,79.08
2022-09-23T16:51:53.801Z,78.48
2022-09-23T16:54:54.447Z,78.76
2022-09-23T16:57:42.712Z,78.75
2022-09-23T17:00:49.576Z,78.79
2022-09-23T17:03:41.108Z,79.42
2022-09-23T17:06:29.933Z,79.19
2022-09-23T17:09:26.826Z,79.77
2022-09-23T17:12:28.154Z,80.27
2022-09-23T17:15:16.166Z,80.24
2022-09-23T17:18:06.555Z,80.46
2022-09-23T17:21:06.300Z,80.56
2022-09-23T17:23:56.764Z,81.22
2022-09-23T17:26:49.370Z,81.85
2022-09-23T17:29:40.538Z,82.58
2022-09-23T17:32:28.497Z,82.91
2022-09-23T17:35:16.648Z,83.31
2022-09-23T17:38:04.955Z,83.87
2022-09-23T17:40:56.309Z,84.27
2022-09-23T17:43:47.002Z,84.79
2022-09-23T17:46:34.926Z,84.99
2022-09-23T17:49:24.408Z,85.74
2022-09-23T17:52:12.292Z,85.81
2022-09-23T17:55:00.452Z,86.07
2022-09-23T17:57:51.678Z,86.39
2022-09-23T18:00:39.400Z,86.30
2022-09-23T18:03:29.589Z,86.93
2022-09-23T18:06:23.375Z,87.13
2022-09-23T18:09:11.744Z,87.84
2022-09-23T18:11:59.573Z,88.07
2022-09-23T18:14:49.000Z,88.52
2022-09-23T18:17:37.265Z,88.73
2022-09-23T18:20:25.312Z,88.38
2022-09-23T18:23:13.526Z,88.86
2022-09-23T18:26:01.104Z,88.80
2022-09-23T18:28:53.775Z,89.02
2022-09-23T18:31:44.458Z,89.04
2022-09-23T18:34:32.705Z,89.38
2022-09-23T18:37:21.031Z,90.00
2022-09-23T18:40:14.652Z,89.84
2022-09-23T18:43:03.626Z,89.50
2022-09-23T18:46:04.073Z,89.72
2022-09-23T18:49:11.471Z,89.98
2022-09-23T18:51:59.819Z,90.14
2022-09-23T18:54:51.780Z,90.50
2022-09-23T18:57:42.448Z,90.46
2022-09-23T19:00:31.186Z,90.49
2022-09-23T19:03:19.408Z,90.59
2022-09-23T19:06:17.171Z,90.76
2022-09-23T19:09:13.550Z,91.04
2022-09-23T19:12:03.830Z,90.73
2022-09-23T19:14:53.492Z,90.93
2022-09-23T19:17:44.463Z,91.03
2022-09-23T19:20:35.210Z,90.96
2022-09-23T19:23:23.068Z,90.47
2022-09-23T19:26:14.042Z,90.48
2022-09-23T19:29:04.526Z,90.53
2022-09-23T19:31:52.742Z,90.62
2022-09-23T19:34:40.726Z,90.66
2022-09-23T19:37:29.109Z,90.71
2022-09-23T19:40:17.396Z,90.17
2022-09-23T19:43:13.265Z,90.54
2022-09-23T19:46:01.330Z,90.60
2022-09-23T19:48:49.401Z,90.54
2022-09-23T19:51:41.458Z,90.60
2022-09-23T19:54:29.778Z,90.70
2022-09-23T19:57:17.917Z,90.73
2022-09-23T20:00:06.411Z,90.76
2022-09-23T20:03:00.598Z,90.66
2022-09-23T20:05:57.135Z,90.70
2022-09-23T20:08:46.587Z,91.15
2022-09-23T20:11:37.119Z,91.34
2022-09-23T20:14:27.323Z,91.62
2022-09-23T20:17:17.754Z,91.83
2022-09-23T20:20:06.184Z,91.68
2022-09-23T20:22:55.461Z,91.89
2022-09-23T20:26:01.999Z,91.88
2022-09-23T20:28:50.131Z,92.12
2022-09-23T20:31:40.665Z,92.54
2022-09-23T20:34:30.077Z,92.98
2022-09-23T20:37:20.596Z,93.10
2022-09-23T20:40:12.068Z,93.04
2022-09-23T20:43:00.196Z,93.02
2022-09-23T20:45:52.944Z,92.70
2022-09-23T20:48:41.607Z,92.55
2022-09-23T20:51:29.988Z,92.44
2022-09-23T20:54:19.546Z,92.28
2022-09-23T20:57:13.127Z,92.33
2022-09-23T21:00:02.271Z,92.48
2022-09-23T21:02:52.723Z,92.70
2022-09-23T21:05:42.363Z,92.97
2022-09-23T21:08:33.576Z,92.88
2022-09-23T21:11:22.719Z,93.02
2022-09-23T21:14:11.108Z,92.91
2022-09-23T21:16:59.670Z,92.56
2022-09-23T21:19:47.905Z,92.82
2022-09-23T21:22:36.434Z,92.60
2022-09-23T21:25:29.034Z,92.72
2022-09-23T21:28:20.040Z,92.96
2022-09-23T21:31:12.292Z,92.75
2022-09-23T21:34:11.465Z,92.86
2022-09-23T21:37:02.258Z,92.97
2022-09-23T21:40:10.338Z,93.06
2022-09-23T21:43:01.561Z,93.52
2022-09-23T21:45:50.000Z,93.77
2022-09-23T21:48:41.575Z,94.15
2022-09-23T21:51:59.765Z,94.41
2022-09-23T21:54:47.777Z,94.18
2022-09-23T21:57:35.660Z,94.29
2022-09-23T22:00:23.897Z,94.07
2022-09-23T22:03:12.846Z,94.24
2022-09-23T22:06:12.263Z,94.55
2022-09-23T22:09:03.903Z,94.82
2022-09-23T22:12:11.977Z,94.91
2022-09-23T22:14:59.671Z,94.21
2022-09-23T22:17:48.352Z,94.45
2022-09-23T22:20:37.105Z,94.43
2022-09-23T22:23:25.752Z,94.67
2022-09-23T22:26:13.548Z,94.97
2022-09-23T22:29:20.493Z,94.99
2022-09-23T22:32:30.362Z,95.20
2022-09-23T22:35:19.028Z,95.35
2022-09-23T22:38:06.936Z,95.36
2022-09-23T22:40:55.129Z,95.39
2022-09-23T22:43:43.079Z,95.07
2022-09-23T22:46:34.771Z,94.74
2022-09-23T22:49:22.966Z,94.25
2022-09-23T22:52:12.656Z,94.68
2022-09-23T22:55:01.232Z,94.81
2022-09-23T22:57:51.741Z,94.83
2022-09-23T23:00:39.682Z,94.90
2022-09-23T23:03:27.899Z,94.70
2022-09-23T23:06:16.077Z,94.85
2022-09-23T23:09:15.380Z,94.58
2022-09-23T23:12:03.412Z,94.54
2022-09-23T23:14:51.351Z,94.57
2022-09-23T23:17:41.408Z,94.59
2022-09-23T23:20:32.330Z,94.63
2022-09-23T23:23:20.138Z,94.62
2022-09-23T23:26:21.211Z,94.52
2022-09-23T23:29:12.173Z,94.96
2022-09-23T23:32:00.256Z,94.91
2022-09-23T23:34:48.243Z,94.90
2022-09-23T23:37:36.379Z,95.33
2022-09-23T23:40:24.351Z,95.68
2022-09-23T23:43:12.313Z,95.96
2022-09-23T23:46:01.728Z,96.42
2022-09-23T23:48:49.546Z,96.65
2022-09-23T23:51:37.562Z,96.61
2022-09-23T23:54:25.479Z,96.47
2022-09-23T23:57:13.647Z,96.48
